createdAt,value
2023-07-24T00:01:50.015Z,3.67
2023-07-24T00:04:16.654Z,3.80
2023-07-24T00:06:43.323Z,4.00
2023-07-24T00:09:10.101Z,4.50
2023-07-24T00:11:36.744Z,4.10
2023-07-24T00:14:03.386Z,3.90
2023-07-24T00:16:30.280Z,4.93
2023-07-24T00:18:57.125Z,4.22
2023-07-24T00:21:23.849Z,4.05
2023-07-24T00:23:50.622Z,4.55
2023-07-24T00:26:17.286Z,4.10
2023-07-24T00:28:43.929Z,4.20
2023-07-24T00:31:10.603Z,5.10
2023-07-24T00:33:37.305Z,4.68
2023-07-24T00:36:04.032Z,4.40
2023-07-24T00:38:30.686Z,4.47
2023-07-24T00:40:57.365Z,4.63
2023-07-24T00:43:24.052Z,4.65
2023-07-24T00:45:50.771Z,4.20
2023-07-24T00:48:17.598Z,4.95
2023-07-24T00:50:45.173Z,4.78
2023-07-24T00:53:13.255Z,4.18
2023-07-24T00:55:41.200Z,4.25
2023-07-24T00:58:08.017Z,4.22
2023-07-24T01:00:34.881Z,4.97
2023-07-24T01:03:01.664Z,5.28
2023-07-24T01:05:28.680Z,4.20
2023-07-24T01:07:55.436Z,4.35
2023-07-24T01:10:22.234Z,4.00
2023-07-24T01:13:07.740Z,4.88
2023-07-24T01:18:11.712Z,4.00
2023-07-24T01:20:42.678Z,4.47
2023-07-24T01:23:23.723Z,4.97
2023-07-24T01:25:59.793Z,4.85
2023-07-24T01:28:27.532Z,4.82
2023-07-24T01:30:55.273Z,4.65
2023-07-24T01:33:23.505Z,4.68
2023-07-24T01:35:54.540Z,4.63
2023-07-24T01:38:22.152Z,4.10
2023-07-24T01:40:49.501Z,4.32
2023-07-24T01:43:16.266Z,4.97
2023-07-24T01:45:42.889Z,4.35
2023-07-24T01:48:09.714Z,4.53
2023-07-24T01:50:36.478Z,5.10
2023-07-24T01:53:03.142Z,4.50
2023-07-24T01:55:29.788Z,4.85
2023-07-24T01:57:56.494Z,5.38
2023-07-24T02:00:23.109Z,4.90
2023-07-24T02:05:16.476Z,4.90
2023-07-24T02:07:43.148Z,4.65
2023-07-24T02:10:10.414Z,4.25
2023-07-24T02:12:37.160Z,4.55
2023-07-24T02:15:04.026Z,4.43
2023-07-24T02:17:30.694Z,4.60
2023-07-24T02:19:57.361Z,4.70
2023-07-24T02:22:24.705Z,4.25
2023-07-24T02:24:51.504Z,4.57
2023-07-24T02:27:35.580Z,4.82
2023-07-24T02:30:03.225Z,4.60
2023-07-24T02:32:29.957Z,4.72
2023-07-24T02:34:56.817Z,4.50
2023-07-24T02:37:23.525Z,5.07
2023-07-24T02:39:50.195Z,5.40
2023-07-24T02:42:16.844Z,4.57
2023-07-24T02:44:43.530Z,5.10
2023-07-24T02:47:10.159Z,5.50
2023-07-24T02:49:36.881Z,4.95
2023-07-24T02:52:03.789Z,4.93
2023-07-24T02:54:30.467Z,5.07
2023-07-24T02:56:57.199Z,5.85
2023-07-24T02:59:24.246Z,5.53
2023-07-24T03:01:50.990Z,5.50
2023-07-24T03:04:17.647Z,5.80
2023-07-24T03:06:44.372Z,4.53
2023-07-24T03:09:11.031Z,4.43
2023-07-24T03:11:37.687Z,5.50
2023-07-24T03:14:04.411Z,5.18
2023-07-24T03:16:31.453Z,5.18
2023-07-24T03:18:58.619Z,5.45
2023-07-24T03:21:25.295Z,5.20
2023-07-24T03:23:51.924Z,5.63
2023-07-24T03:26:18.593Z,5.43
2023-07-24T03:28:45.237Z,5.03
2023-07-24T03:31:12.040Z,4.90
2023-07-24T03:33:38.753Z,5.70
2023-07-24T03:36:05.753Z,4.75
2023-07-24T03:38:32.401Z,5.45
2023-07-24T03:40:59.057Z,6.32
2023-07-24T03:43:25.750Z,5.50
2023-07-24T03:45:52.386Z,4.97
2023-07-24T03:48:19.022Z,5.60
2023-07-24T03:50:45.648Z,5.05
2023-07-24T03:53:12.370Z,5.45
2023-07-24T03:55:39.085Z,5.22
2023-07-24T03:58:05.757Z,5.13
2023-07-24T04:00:32.444Z,5.32
2023-07-24T04:02:59.170Z,5.50
2023-07-24T04:05:26.126Z,5.63
2023-07-24T04:07:52.783Z,5.32
2023-07-24T04:10:19.429Z,5.00
2023-07-24T04:12:46.059Z,5.43
2023-07-24T04:15:12.710Z,5.35
2023-07-24T04:17:41.026Z,5.22
2023-07-24T04:20:08.352Z,5.57
2023-07-24T04:22:34.986Z,5.43
2023-07-24T04:25:01.795Z,5.40
2023-07-24T04:27:28.618Z,5.75
2023-07-24T04:29:55.234Z,5.95
2023-07-24T04:32:22.059Z,5.40
2023-07-24T04:34:48.743Z,5.30
2023-07-24T04:37:15.412Z,5.15
2023-07-24T04:39:42.131Z,5.93
2023-07-24T04:42:09.148Z,5.93
2023-07-24T04:44:35.803Z,6.00
2023-07-24T04:47:05.172Z,5.63
2023-07-24T04:49:33.489Z,5.57
2023-07-24T04:52:00.586Z,6.20
2023-07-24T04:54:27.238Z,5.63
2023-07-24T04:56:53.877Z,5.75
2023-07-24T04:59:20.538Z,5.78
2023-07-24T05:01:47.278Z,5.97
2023-07-24T05:04:13.999Z,6.45
2023-07-24T05:06:40.703Z,5.85
2023-07-24T05:09:07.382Z,5.65
2023-07-24T05:11:34.060Z,5.85
2023-07-24T05:14:00.771Z,6.07
2023-07-24T05:16:27.448Z,5.57
2023-07-24T05:18:54.173Z,5.78
2023-07-24T05:21:20.841Z,6.07
2023-07-24T05:23:47.465Z,5.93
2023-07-24T05:26:14.104Z,6.10
2023-07-24T05:28:40.859Z,5.47
2023-07-24T05:31:08.987Z,5.63
2023-07-24T05:33:35.723Z,5.70
2023-07-24T05:36:04.316Z,6.00
2023-07-24T05:38:31.629Z,6.10
2023-07-24T05:41:04.180Z,6.07
2023-07-24T05:43:32.030Z,5.70
2023-07-24T05:45:59.319Z,5.53
2023-07-24T05:48:26.634Z,6.30
2023-07-24T05:50:53.381Z,5.40
2023-07-24T05:53:20.093Z,5.28
2023-07-24T05:55:46.796Z,6.15
2023-07-24T05:58:13.683Z,5.97
2023-07-24T06:00:40.388Z,6.40
2023-07-24T06:03:08.702Z,5.40
2023-07-24T06:05:35.917Z,5.72
2023-07-24T06:08:02.625Z,5.47
2023-07-24T06:10:29.329Z,5.53
2023-07-24T06:12:56.068Z,5.60
2023-07-24T06:15:22.788Z,4.95
2023-07-24T06:17:51.060Z,5.45
2023-07-24T06:20:20.124Z,5.65
2023-07-24T06:22:46.764Z,5.95
2023-07-24T06:25:13.485Z,5.43
2023-07-24T06:27:40.140Z,6.10
2023-07-24T06:30:14.915Z,5.47
2023-07-24T06:32:42.764Z,5.57
2023-07-24T06:35:09.520Z,6.10
2023-07-24T06:37:36.296Z,5.57
2023-07-24T06:40:03.460Z,5.43
2023-07-24T06:42:30.172Z,5.50
2023-07-24T06:44:56.851Z,5.45
2023-07-24T06:47:23.546Z,5.20
2023-07-24T06:49:50.195Z,5.80
2023-07-24T06:52:17.041Z,6.40
2023-07-24T06:54:43.878Z,6.28
2023-07-24T06:57:11.221Z,5.45
2023-07-24T06:59:37.962Z,5.75
2023-07-24T07:02:05.061Z,5.30
2023-07-24T07:04:31.697Z,6.15
2023-07-24T07:06:58.325Z,5.53
2023-07-24T07:09:24.982Z,6.45
2023-07-24T07:11:51.625Z,5.32
2023-07-24T07:14:18.350Z,5.72
2023-07-24T07:16:45.517Z,5.57
2023-07-24T07:19:12.158Z,6.03
2023-07-24T07:21:38.842Z,6.35
2023-07-24T07:24:05.841Z,5.40
2023-07-24T07:26:32.691Z,5.78
2023-07-24T07:28:59.698Z,5.18
2023-07-24T07:31:26.510Z,5.88
2023-07-24T07:33:53.198Z,5.65
2023-07-24T07:36:19.837Z,5.93
2023-07-24T07:38:46.662Z,5.68
2023-07-24T07:41:13.405Z,5.63
2023-07-24T07:43:40.139Z,5.57
2023-07-24T07:46:06.863Z,5.90
2023-07-24T07:48:33.959Z,5.30
2023-07-24T07:51:00.766Z,5.63
2023-07-24T07:53:27.409Z,6.43
2023-07-24T07:56:01.091Z,5.30
2023-07-24T07:58:27.955Z,6.15
2023-07-24T08:00:54.820Z,6.38
2023-07-24T08:03:21.916Z,6.35
2023-07-24T08:05:48.780Z,5.53
2023-07-24T08:08:15.456Z,5.95
2023-07-24T08:10:42.213Z,6.05
2023-07-24T08:13:08.892Z,6.53
2023-07-24T08:15:38.618Z,5.75
2023-07-24T08:18:06.319Z,6.32
2023-07-24T08:20:36.282Z,6.20
2023-07-24T08:23:03.038Z,6.20
2023-07-24T08:25:29.701Z,6.82
2023-07-24T08:28:05.134Z,6.65
2023-07-24T08:30:34.621Z,6.15
2023-07-24T08:33:01.946Z,6.10
2023-07-24T08:35:29.020Z,6.18
2023-07-24T08:37:55.686Z,6.22
2023-07-24T08:40:22.709Z,6.75
2023-07-24T08:42:51.784Z,5.95
2023-07-24T08:45:19.323Z,6.93
2023-07-24T08:47:46.561Z,6.15
2023-07-24T08:50:16.195Z,6.65
2023-07-24T08:52:44.332Z,5.50
2023-07-24T08:55:12.081Z,6.28
2023-07-24T08:57:38.823Z,5.97
2023-07-24T09:00:06.380Z,6.03
2023-07-24T09:02:34.529Z,6.13
2023-07-24T09:05:01.527Z,6.82
2023-07-24T09:07:28.321Z,6.40
2023-07-24T09:09:54.990Z,5.32
2023-07-24T09:12:23.891Z,5.38
2023-07-24T09:15:01.040Z,6.18
2023-07-24T09:17:27.759Z,6.22
2023-07-24T09:20:03.023Z,6.40
2023-07-24T09:22:29.726Z,5.97
2023-07-24T09:24:58.253Z,5.82
2023-07-24T09:27:32.521Z,6.45
2023-07-24T09:30:00.203Z,6.32
2023-07-24T09:32:28.565Z,5.85
2023-07-24T09:34:55.797Z,5.95
2023-07-24T09:37:31.260Z,5.60
2023-07-24T09:40:00.328Z,6.90
2023-07-24T09:42:32.128Z,6.03
2023-07-24T09:44:59.109Z,6.18
2023-07-24T09:47:51.068Z,6.20
2023-07-24T09:50:13.329Z,6.32
2023-07-24T09:52:43.061Z,6.32
2023-07-24T09:55:16.746Z,5.97
2023-07-24T09:57:46.043Z,6.22
2023-07-24T10:00:13.654Z,5.97
2023-07-24T10:02:41.497Z,6.05
2023-07-24T10:05:08.892Z,5.35
2023-07-24T10:07:36.031Z,6.85
2023-07-24T10:10:02.833Z,6.28
2023-07-24T10:12:32.265Z,5.60
2023-07-24T10:15:00.152Z,6.57
2023-07-24T10:17:40.918Z,6.40
2023-07-24T10:20:09.901Z,6.40
2023-07-24T10:22:38.902Z,6.65
2023-07-24T10:25:06.766Z,5.97
2023-07-24T10:27:37.768Z,6.15
2023-07-24T10:30:18.533Z,6.57
2023-07-24T10:32:54.023Z,6.72
2023-07-24T10:35:23.797Z,6.57
2023-07-24T10:38:00.931Z,6.03
2023-07-24T10:40:27.744Z,6.85
2023-07-24T10:43:21.731Z,6.07
2023-07-24T10:45:54.921Z,6.15
2023-07-24T10:48:23.217Z,6.03
2023-07-24T10:50:54.450Z,6.25
2023-07-24T10:53:23.093Z,5.93
2023-07-24T10:55:52.013Z,5.75
2023-07-24T10:58:18.777Z,5.97
2023-07-24T11:00:46.332Z,6.03
2023-07-24T11:03:13.909Z,6.28
2023-07-24T11:05:45.358Z,5.68
2023-07-24T11:08:16.387Z,5.65
2023-07-24T11:10:48.527Z,5.68
2023-07-24T11:13:16.663Z,5.80
2023-07-24T11:15:43.489Z,6.10
2023-07-24T11:18:10.323Z,5.93
2023-07-24T11:20:54.708Z,6.00
2023-07-24T11:23:21.376Z,6.35
2023-07-24T11:25:48.338Z,6.45
2023-07-24T11:28:16.087Z,7.07
2023-07-24T11:30:44.109Z,6.65
2023-07-24T11:33:19.219Z,6.32
2023-07-24T11:35:46.684Z,6.82
2023-07-24T11:38:14.364Z,6.78
2023-07-24T11:40:45.248Z,6.50
2023-07-24T11:43:19.895Z,6.82
2023-07-24T11:45:52.955Z,6.30
2023-07-24T11:48:20.729Z,7.03
2023-07-24T11:50:52.229Z,7.03
2023-07-24T11:53:28.904Z,6.10
2023-07-24T11:55:57.515Z,7.03
2023-07-24T11:58:26.903Z,6.15
2023-07-24T12:00:54.145Z,6.07
2023-07-24T12:03:22.862Z,5.88
2023-07-24T12:05:50.961Z,6.38
2023-07-24T12:08:20.200Z,6.68
2023-07-24T12:10:47.026Z,6.72
2023-07-24T12:13:13.744Z,6.70
2023-07-24T12:15:40.453Z,6.40
2023-07-24T12:18:07.725Z,5.50
2023-07-24T12:20:35.828Z,5.82
2023-07-24T12:23:02.660Z,5.78
2023-07-24T12:25:29.517Z,5.70
2023-07-24T12:27:56.218Z,6.32
2023-07-24T12:30:23.034Z,6.03
2023-07-24T12:32:49.768Z,5.57
2023-07-24T12:35:17.607Z,6.35
2023-07-24T12:37:45.246Z,5.60
2023-07-24T12:40:12.486Z,5.93
2023-07-24T12:42:39.251Z,5.60
2023-07-24T12:45:06.750Z,5.93
2023-07-24T12:47:34.156Z,5.80
2023-07-24T12:50:02.064Z,5.70
2023-07-24T12:52:30.282Z,5.53
2023-07-24T12:55:02.322Z,5.10
2023-07-24T12:59:56.207Z,5.20
2023-07-24T13:02:22.867Z,5.70
2023-07-24T13:04:49.584Z,5.53
2023-07-24T13:07:16.868Z,6.15
2023-07-24T13:09:43.583Z,4.80
2023-07-24T13:12:10.833Z,5.35
2023-07-24T13:14:39.253Z,5.25
2023-07-24T13:17:07.978Z,5.53
2023-07-24T13:19:34.674Z,5.53
2023-07-24T13:22:01.326Z,5.03
2023-07-24T13:24:28.015Z,5.78
2023-07-24T13:26:54.726Z,5.20
2023-07-24T13:29:23.759Z,5.40
2023-07-24T13:31:53.344Z,5.35
2023-07-24T13:34:20.774Z,4.82
2023-07-24T13:36:48.253Z,4.90
2023-07-24T13:39:14.966Z,4.95
2023-07-24T13:41:41.783Z,5.03
2023-07-24T13:44:08.688Z,5.15
2023-07-24T13:46:38.110Z,4.88
2023-07-24T13:49:06.640Z,4.55
2023-07-24T13:51:33.379Z,4.82
2023-07-24T13:54:02.168Z,5.18
2023-07-24T13:56:31.141Z,5.50
2023-07-24T13:58:57.831Z,4.75
2023-07-24T14:01:24.558Z,4.80
2023-07-24T14:03:51.330Z,4.57
2023-07-24T14:06:18.151Z,5.38
2023-07-24T14:08:44.806Z,5.03
2023-07-24T14:11:11.479Z,5.50
2023-07-24T14:13:38.163Z,4.97
2023-07-24T14:16:04.916Z,5.38
2023-07-24T14:18:31.593Z,4.97
2023-07-24T14:21:00.444Z,5.03
2023-07-24T14:23:27.136Z,4.75
2023-07-24T14:25:53.788Z,5.25
2023-07-24T14:28:20.464Z,4.93
2023-07-24T14:30:47.150Z,5.38
2023-07-24T14:33:13.979Z,4.82
2023-07-24T14:35:40.684Z,5.40
2023-07-24T14:38:07.445Z,5.38
2023-07-24T14:40:34.130Z,4.70
2023-07-24T14:43:00.787Z,4.93
2023-07-24T14:45:27.511Z,5.15
2023-07-24T14:47:54.255Z,4.47
2023-07-24T14:50:20.955Z,4.95
2023-07-24T14:52:47.671Z,5.88
2023-07-24T14:55:15.782Z,4.65
2023-07-24T14:57:42.450Z,4.63
2023-07-24T15:00:09.707Z,4.90
2023-07-24T15:02:36.471Z,4.97
2023-07-24T15:05:03.482Z,5.15
2023-07-24T15:07:30.502Z,4.60
2023-07-24T15:09:57.427Z,4.70
2023-07-24T15:12:24.126Z,4.22
2023-07-24T15:14:50.795Z,4.60
2023-07-24T15:17:19.410Z,4.38
2023-07-24T15:19:46.140Z,5.15
2023-07-24T15:22:12.822Z,4.63
2023-07-24T15:24:41.552Z,4.70
2023-07-24T15:27:09.924Z,5.10
2023-07-24T15:29:39.990Z,4.70
2023-07-24T15:32:07.371Z,5.13
2023-07-24T15:34:35.890Z,4.30
2023-07-24T15:37:04.892Z,4.57
2023-07-24T15:39:31.693Z,4.10
2023-07-24T15:41:58.425Z,4.65
2023-07-24T15:44:25.087Z,4.63
2023-07-24T15:46:51.810Z,4.95
2023-07-24T15:49:18.560Z,4.93
2023-07-24T15:51:45.245Z,4.47
2023-07-24T15:54:11.983Z,4.60
2023-07-24T15:56:41.979Z,4.57
2023-07-24T15:59:10.542Z,4.40
2023-07-24T16:01:37.279Z,4.53
2023-07-24T16:04:04.093Z,4.75
2023-07-24T16:06:30.748Z,5.43
2023-07-24T16:08:58.354Z,3.38
2023-07-24T16:11:24.992Z,3.88
2023-07-24T16:13:51.629Z,3.45
2023-07-24T16:16:19.393Z,3.33
2023-07-24T16:18:46.115Z,3.42
2023-07-24T16:21:12.771Z,3.38
2023-07-24T16:23:39.536Z,3.22
2023-07-24T16:26:06.292Z,3.22
2023-07-24T16:28:32.933Z,3.55
2023-07-24T16:31:00.049Z,4.32
2023-07-24T16:33:26.843Z,4.55
2023-07-24T16:35:53.618Z,3.75
2023-07-24T16:38:20.385Z,4.47
2023-07-24T16:40:47.189Z,4.32
2023-07-24T16:43:13.837Z,4.97
2023-07-24T16:45:40.535Z,4.93
2023-07-24T16:48:07.432Z,4.60
2023-07-24T16:50:36.223Z,4.50
2023-07-24T16:53:04.463Z,4.78
2023-07-24T16:55:31.183Z,4.82
2023-07-24T16:57:58.028Z,4.38
2023-07-24T17:00:24.788Z,4.47
2023-07-24T17:02:51.603Z,4.32
2023-07-24T17:05:18.529Z,3.80
2023-07-24T17:07:45.250Z,4.22
2023-07-24T17:10:12.248Z,3.38
2023-07-24T17:12:38.897Z,3.47
2023-07-24T17:15:06.980Z,3.10
2023-07-24T17:17:33.998Z,3.30
2023-07-24T17:20:00.862Z,3.08
2023-07-24T17:22:27.508Z,2.83
2023-07-24T17:24:54.188Z,2.63
2023-07-24T17:27:21.079Z,3.13
2023-07-24T17:29:47.753Z,3.08
2023-07-24T17:32:14.653Z,3.15
2023-07-24T17:34:44.182Z,3.28
2023-07-24T17:37:14.166Z,2.72
2023-07-24T17:39:45.014Z,3.60
2023-07-24T17:42:11.640Z,3.22
2023-07-24T17:44:38.612Z,3.70
2023-07-24T17:47:05.261Z,3.60
2023-07-24T17:49:31.929Z,3.60
2023-07-24T17:51:58.639Z,3.53
2023-07-24T17:54:25.267Z,3.85
2023-07-24T17:56:51.907Z,3.53
2023-07-24T17:59:18.544Z,3.63
2023-07-24T18:01:45.256Z,4.45
2023-07-24T18:04:11.969Z,3.55
2023-07-24T18:06:38.600Z,3.53
2023-07-24T18:09:06.342Z,4.03
2023-07-24T18:11:33.320Z,3.20
2023-07-24T18:14:00.197Z,3.60
2023-07-24T18:16:26.995Z,3.28
2023-07-24T18:18:53.727Z,3.30
2023-07-24T18:21:20.980Z,3.55
2023-07-24T18:23:47.686Z,3.38
2023-07-24T18:26:14.427Z,3.03
2023-07-24T18:28:41.061Z,2.85
2023-07-24T18:31:08.632Z,2.97
2023-07-24T18:33:35.337Z,3.03
2023-07-24T18:36:02.135Z,2.80
2023-07-24T18:38:28.800Z,2.97
2023-07-24T18:40:55.468Z,2.75
2023-07-24T18:43:22.224Z,3.15
2023-07-24T18:45:48.921Z,3.33
2023-07-24T18:48:16.011Z,2.63
2023-07-24T18:50:44.435Z,3.45
2023-07-24T18:53:12.155Z,3.20
2023-07-24T18:55:40.978Z,2.85
2023-07-24T18:58:07.696Z,2.85
2023-07-24T19:00:34.352Z,3.15
2023-07-24T19:03:01.144Z,2.92
2023-07-24T19:05:27.873Z,2.63
2023-07-24T19:07:54.561Z,2.38
2023-07-24T19:10:21.292Z,2.65
2023-07-24T19:12:48.044Z,3.05
2023-07-24T19:15:14.762Z,2.70
2023-07-24T19:17:43.670Z,2.90
2023-07-24T19:20:13.737Z,3.08
2023-07-24T19:22:40.759Z,2.63
2023-07-24T19:25:07.992Z,2.53
2023-07-24T19:27:35.168Z,2.60
2023-07-24T19:30:03.851Z,2.80
2023-07-24T19:32:31.011Z,2.40
2023-07-24T19:34:57.885Z,2.42
2023-07-24T19:37:24.758Z,2.53
2023-07-24T19:39:51.401Z,2.38
2023-07-24T19:42:18.043Z,2.90
2023-07-24T19:44:44.682Z,2.58
2023-07-24T19:47:11.411Z,2.38
2023-07-24T19:49:41.536Z,2.47
2023-07-24T19:52:08.452Z,2.50
2023-07-24T19:54:35.206Z,2.30
2023-07-24T19:57:01.899Z,2.90
2023-07-24T19:59:29.039Z,2.13
2023-07-24T20:01:57.034Z,2.95
2023-07-24T20:04:23.926Z,2.80
2023-07-24T20:06:50.759Z,2.63
2023-07-24T20:09:17.516Z,2.40
2023-07-24T20:11:45.718Z,2.63
2023-07-24T20:14:14.376Z,2.15
2023-07-24T20:16:41.107Z,2.53
2023-07-24T20:19:07.854Z,2.70
2023-07-24T20:21:34.560Z,3.03
2023-07-24T20:24:12.339Z,2.30
2023-07-24T20:26:39.462Z,2.38
2023-07-24T20:29:06.465Z,2.60
2023-07-24T20:31:33.458Z,2.25
2023-07-24T20:34:00.480Z,2.40
2023-07-24T20:36:27.159Z,2.25
2023-07-24T20:38:53.839Z,2.35
2023-07-24T20:41:20.552Z,2.20
2023-07-24T20:43:47.246Z,2.08
2023-07-24T20:46:15.655Z,2.20
2023-07-24T20:48:43.015Z,2.20
2023-07-24T20:51:21.400Z,2.50
2023-07-24T20:53:48.755Z,2.45
2023-07-24T20:56:15.656Z,2.50
2023-07-24T20:58:42.489Z,2.30
2023-07-24T21:01:10.305Z,2.35
2023-07-24T21:03:37.060Z,2.45
2023-07-24T21:06:04.055Z,2.15
2023-07-24T21:08:30.842Z,2.00
2023-07-24T21:10:57.537Z,2.08
2023-07-24T21:13:24.210Z,2.38
2023-07-24T21:15:55.542Z,2.45
2023-07-24T21:18:22.572Z,2.20
2023-07-24T21:20:49.269Z,2.17
2023-07-24T21:23:15.991Z,1.65
2023-07-24T21:25:55.495Z,2.30
2023-07-24T21:28:25.360Z,2.05
2023-07-24T21:30:52.475Z,2.03
2023-07-24T21:33:19.630Z,2.33
2023-07-24T21:35:46.325Z,2.40
2023-07-24T21:38:13.253Z,2.45
2023-07-24T21:40:40.701Z,2.40
2023-07-24T21:43:08.563Z,2.55
2023-07-24T21:45:35.364Z,2.10
2023-07-24T21:48:05.041Z,2.53
2023-07-24T21:50:31.749Z,2.78
2023-07-24T21:52:58.401Z,2.67
2023-07-24T21:55:25.057Z,2.28
2023-07-24T21:57:51.881Z,2.30
2023-07-24T22:00:18.621Z,2.25
2023-07-24T22:02:45.363Z,2.20
2023-07-24T22:05:12.570Z,2.10
2023-07-24T22:07:39.231Z,2.45
2023-07-24T22:10:06.511Z,2.33
2023-07-24T22:12:33.887Z,2.25
2023-07-24T22:15:00.839Z,2.20
2023-07-24T22:17:29.281Z,2.20
2023-07-24T22:19:56.771Z,1.90
2023-07-24T22:22:24.281Z,2.03
2023-07-24T22:24:51.105Z,2.10
2023-07-24T22:27:17.966Z,2.65
2023-07-24T22:29:44.754Z,2.10
2023-07-24T22:32:11.507Z,1.90
2023-07-24T22:34:38.178Z,1.85
2023-07-24T22:37:06.834Z,1.88
2023-07-24T22:39:34.395Z,1.88
2023-07-24T22:42:02.203Z,1.70
2023-07-24T22:44:29.246Z,1.85
2023-07-24T22:46:56.031Z,1.73
2023-07-24T22:49:23.093Z,1.98
2023-07-24T22:51:49.748Z,1.83
2023-07-24T22:56:43.282Z,1.60
2023-07-24T22:59:24.322Z,1.90
2023-07-24T23:01:53.001Z,1.95
2023-07-24T23:04:23.064Z,1.88
2023-07-24T23:06:50.432Z,1.88
2023-07-24T23:09:17.161Z,1.90
2023-07-24T23:11:43.791Z,1.67
2023-07-24T23:16:37.231Z,1.63
2023-07-24T23:19:03.990Z,2.15
2023-07-24T23:21:30.894Z,2.25
2023-07-24T23:23:58.039Z,2.50
2023-07-24T23:26:24.677Z,2.50
2023-07-24T23:28:56.993Z,2.47
2023-07-24T23:31:23.945Z,2.28
2023-07-24T23:33:50.620Z,2.28
2023-07-24T23:36:17.317Z,2.13
2023-07-24T23:38:44.000Z,2.08
2023-07-24T23:41:10.678Z,2.53
2023-07-24T23:43:37.310Z,2.05
2023-07-24T23:46:11.924Z,2.15
2023-07-24T23:48:39.498Z,2.42
2023-07-24T23:51:12.489Z,2.30
2023-07-24T23:56:05.729Z,2.25
2023-07-24T23:58:32.527Z,2.53
